Fredonia, Kentucky
Current Conditions -  °F | °C
As of 6:55 PM on Saturday 25 Oct 2014 (Local Time) from K5M9 Reporting Station
Clear Clear  
Wind Chill: 70°   Ceiling: Unl
Heat Index: 70°   Visibility: 10mi
Dew Point: 60°   Wind: 5mph
Humidity: 72%   Direction: 260°W
Pressure: 30.01"   Gusts: NA
Location:  37.21°N, 88.06°W
Report Text: K5M9 252355Z AUTO 26004KT 10SM CLR 21/16 A3001 RMK AO2 T02090157 10260 20205
Loading
Personal Weather Stations






























Interactive Weather Map
Tropical Storm Tracking
New forecast layout! Learn more

10-Day Weather Forecast

Advertisements
Track Severe Weather on mobile